sensor_id;sensor_type;location;lat;lon;timestamp;temperature;humidity
14236;DHT22;7202;50.718;7.072;2024-01-30T00:01:56;6.60;99.90
14236;DHT22;7202;50.718;7.072;2024-01-30T00:04:26;6.70;99.90
14236;DHT22;7202;50.718;7.072;2024-01-30T00:06:54;6.50;99.90
14236;DHT22;7202;50.718;7.072;2024-01-30T00:09:23;6.50;99.90
14236;DHT22;7202;50.718;7.072;2024-01-30T00:11:54;6.40;99.90
14236;DHT22;7202;50.718;7.072;2024-01-30T00:14:22;6.40;99.90
14236;DHT22;7202;50.718;7.072;2024-01-30T00:16:51;6.30;99.90
14236;DHT22;7202;50.718;7.072;2024-01-30T00:19:20;6.30;99.90
14236;DHT22;7202;50.718;7.072;2024-01-30T00:21:50;6.40;99.90
14236;DHT22;7202;50.718;7.072;2024-01-30T00:24:18;6.20;99.90
14236;DHT22;7202;50.718;7.072;2024-01-30T00:26:47;6.20;99.90
14236;DHT22;7202;50.718;7.072;2024-01-30T00:29:15;6.20;99.90
14236;DHT22;7202;50.718;7.072;2024-01-30T00:31:47;6.20;99.90
14236;DHT22;7202;50.718;7.072;2024-01-30T00:34:15;6.10;99.90
14236;DHT22;7202;50.718;7.072;2024-01-30T00:36:44;6.10;99.90
14236;DHT22;7202;50.718;7.072;2024-01-30T00:39:14;6.10;99.90
14236;DHT22;7202;50.718;7.072;2024-01-30T00:41:43;6.10;99.90
14236;DHT22;7202;50.718;7.072;2024-01-30T00:44:11;6.10;99.90
14236;DHT22;7202;50.718;7.072;2024-01-30T00:46:40;6.00;99.90
14236;DHT22;7202;50.718;7.072;2024-01-30T00:49:08;6.00;99.90
14236;DHT22;7202;50.718;7.072;2024-01-30T00:51:37;6.00;99.90
14236;DHT22;7202;50.718;7.072;2024-01-30T00:54:06;6.00;99.90
14236;DHT22;7202;50.718;7.072;2024-01-30T00:56:36;6.00;99.90
14236;DHT22;7202;50.718;7.072;2024-01-30T00:59:05;5.90;99.90
14236;DHT22;7202;50.718;7.072;2024-01-30T01:01:33;5.90;99.90
14236;DHT22;7202;50.718;7.072;2024-01-30T01:04:02;5.90;99.90
14236;DHT22;7202;50.718;7.072;2024-01-30T01:06:31;5.90;99.90
14236;DHT22;7202;50.718;7.072;2024-01-30T01:08:59;5.90;99.90
14236;DHT22;7202;50.718;7.072;2024-01-30T01:11:31;5.90;99.90
14236;DHT22;7202;50.718;7.072;2024-01-30T01:14:01;5.90;99.90
14236;DHT22;7202;50.718;7.072;2024-01-30T01:16:29;5.90;99.90
14236;DHT22;7202;50.718;7.072;2024-01-30T01:18:58;5.80;99.90
14236;DHT22;7202;50.718;7.072;2024-01-30T01:21:27;5.80;99.90
14236;DHT22;7202;50.718;7.072;2024-01-30T01:23:56;5.80;99.90
14236;DHT22;7202;50.718;7.072;2024-01-30T01:26:25;5.80;99.90
14236;DHT22;7202;50.718;7.072;2024-01-30T01:28:53;5.80;99.90
14236;DHT22;7202;50.718;7.072;2024-01-30T01:31:23;5.80;99.90
14236;DHT22;7202;50.718;7.072;2024-01-30T01:33:52;5.70;99.90
14236;DHT22;7202;50.718;7.072;2024-01-30T01:36:21;5.70;99.90
14236;DHT22;7202;50.718;7.072;2024-01-30T01:38:49;5.70;99.90
14236;DHT22;7202;50.718;7.072;2024-01-30T01:41:18;5.70;99.90
14236;DHT22;7202;50.718;7.072;2024-01-30T01:43:47;5.60;99.90
14236;DHT22;7202;50.718;7.072;2024-01-30T01:46:16;5.40;99.90
14236;DHT22;7202;50.718;7.072;2024-01-30T01:48:47;5.70;99.90
14236;DHT22;7202;50.718;7.072;2024-01-30T01:51:16;5.70;99.90
14236;DHT22;7202;50.718;7.072;2024-01-30T01:53:45;5.70;99.90
14236;DHT22;7202;50.718;7.072;2024-01-30T01:56:14;5.70;99.90
14236;DHT22;7202;50.718;7.072;2024-01-30T01:58:44;5.70;99.90
14236;DHT22;7202;50.718;7.072;2024-01-30T02:01:14;5.70;99.90
14236;DHT22;7202;50.718;7.072;2024-01-30T02:03:46;5.70;99.90
14236;DHT22;7202;50.718;7.072;2024-01-30T02:06:15;5.80;99.90
14236;DHT22;7202;50.718;7.072;2024-01-30T02:08:44;5.70;99.90
14236;DHT22;7202;50.718;7.072;2024-01-30T02:11:12;5.70;99.90
14236;DHT22;7202;50.718;7.072;2024-01-30T02:13:41;5.80;99.90
14236;DHT22;7202;50.718;7.072;2024-01-30T02:16:09;5.80;99.90
14236;DHT22;7202;50.718;7.072;2024-01-30T02:18:38;5.80;99.90
14236;DHT22;7202;50.718;7.072;2024-01-30T02:21:12;5.80;99.90
14236;DHT22;7202;50.718;7.072;2024-01-30T02:23:41;5.80;99.90
14236;DHT22;7202;50.718;7.072;2024-01-30T02:26:11;5.80;99.90
14236;DHT22;7202;50.718;7.072;2024-01-30T02:28:39;5.70;99.90
14236;DHT22;7202;50.718;7.072;2024-01-30T02:31:08;5.80;99.90
14236;DHT22;7202;50.718;7.072;2024-01-30T02:33:37;5.80;99.90
14236;DHT22;7202;50.718;7.072;2024-01-30T02:36:06;5.90;99.90
14236;DHT22;7202;50.718;7.072;2024-01-30T02:38:35;5.90;99.90
14236;DHT22;7202;50.718;7.072;2024-01-30T02:41:04;5.90;99.90
14236;DHT22;7202;50.718;7.072;2024-01-30T02:43:32;5.90;99.90
14236;DHT22;7202;50.718;7.072;2024-01-30T02:46:01;6.00;99.90
14236;DHT22;7202;50.718;7.072;2024-01-30T02:48:29;6.00;99.90
14236;DHT22;7202;50.718;7.072;2024-01-30T02:50:58;6.00;99.90
14236;DHT22;7202;50.718;7.072;2024-01-30T02:53:27;6.00;99.90
14236;DHT22;7202;50.718;7.072;2024-01-30T02:55:57;6.00;99.90
14236;DHT22;7202;50.718;7.072;2024-01-30T02:58:25;6.00;99.90
14236;DHT22;7202;50.718;7.072;2024-01-30T03:00:54;6.10;99.90
14236;DHT22;7202;50.718;7.072;2024-01-30T03:03:23;6.10;99.90
14236;DHT22;7202;50.718;7.072;2024-01-30T03:05:51;6.10;99.90
14236;DHT22;7202;50.718;7.072;2024-01-30T03:08:20;6.10;99.90
14236;DHT22;7202;50.718;7.072;2024-01-30T03:10:49;6.10;99.90
14236;DHT22;7202;50.718;7.072;2024-01-30T03:13:19;6.10;99.90
14236;DHT22;7202;50.718;7.072;2024-01-30T03:15:47;6.10;99.90
14236;DHT22;7202;50.718;7.072;2024-01-30T03:18:16;6.10;99.90
14236;DHT22;7202;50.718;7.072;2024-01-30T03:20:45;6.20;99.90
14236;DHT22;7202;50.718;7.072;2024-01-30T03:23:13;6.20;99.90
14236;DHT22;7202;50.718;7.072;2024-01-30T03:25:42;6.20;99.90
14236;DHT22;7202;50.718;7.072;2024-01-30T03:28:10;6.20;99.90
14236;DHT22;7202;50.718;7.072;2024-01-30T03:30:40;6.20;99.90
14236;DHT22;7202;50.718;7.072;2024-01-30T03:33:09;6.30;99.90
14236;DHT22;7202;50.718;7.072;2024-01-30T03:35:38;6.30;99.90
14236;DHT22;7202;50.718;7.072;2024-01-30T03:38:06;6.30;99.90
14236;DHT22;7202;50.718;7.072;2024-01-30T03:40:34;6.30;99.90
14236;DHT22;7202;50.718;7.072;2024-01-30T03:43:03;6.30;99.90
14236;DHT22;7202;50.718;7.072;2024-01-30T03:45:32;6.40;99.90
14236;DHT22;7202;50.718;7.072;2024-01-30T03:48:02;6.30;99.90
14236;DHT22;7202;50.718;7.072;2024-01-30T03:50:31;6.30;99.90
14236;DHT22;7202;50.718;7.072;2024-01-30T03:52:59;6.30;99.90
14236;DHT22;7202;50.718;7.072;2024-01-30T03:55:28;6.30;99.90
14236;DHT22;7202;50.718;7.072;2024-01-30T03:57:56;6.30;99.90
14236;DHT22;7202;50.718;7.072;2024-01-30T04:00:25;6.30;99.90
14236;DHT22;7202;50.718;7.072;2024-01-30T04:02:54;6.20;99.90
14236;DHT22;7202;50.718;7.072;2024-01-30T04:05:24;6.20;99.90
14236;DHT22;7202;50.718;7.072;2024-01-30T04:07:52;6.20;99.90
14236;DHT22;7202;50.718;7.072;2024-01-30T04:10:21;6.30;99.90
14236;DHT22;7202;50.718;7.072;2024-01-30T04:12:50;6.30;99.90
14236;DHT22;7202;50.718;7.072;2024-01-30T04:15:21;6.30;99.90
14236;DHT22;7202;50.718;7.072;2024-01-30T04:17:50;6.30;99.90
14236;DHT22;7202;50.718;7.072;2024-01-30T04:20:18;6.30;99.90
14236;DHT22;7202;50.718;7.072;2024-01-30T04:22:48;6.30;99.90
14236;DHT22;7202;50.718;7.072;2024-01-30T04:25:17;6.30;99.90
14236;DHT22;7202;50.718;7.072;2024-01-30T04:27:45;6.40;99.90
14236;DHT22;7202;50.718;7.072;2024-01-30T04:30:14;6.40;99.90
14236;DHT22;7202;50.718;7.072;2024-01-30T04:32:44;6.40;99.90
14236;DHT22;7202;50.718;7.072;2024-01-30T04:35:12;6.40;99.90
14236;DHT22;7202;50.718;7.072;2024-01-30T04:37:41;6.50;99.90
14236;DHT22;7202;50.718;7.072;2024-01-30T04:40:12;6.40;99.90
14236;DHT22;7202;50.718;7.072;2024-01-30T04:42:40;6.40;99.90
14236;DHT22;7202;50.718;7.072;2024-01-30T04:45:09;6.50;99.90
14236;DHT22;7202;50.718;7.072;2024-01-30T04:47:38;6.50;99.90
14236;DHT22;7202;50.718;7.072;2024-01-30T04:50:08;6.50;99.90
14236;DHT22;7202;50.718;7.072;2024-01-30T04:52:37;6.50;99.90
14236;DHT22;7202;50.718;7.072;2024-01-30T04:55:06;6.50;99.90
14236;DHT22;7202;50.718;7.072;2024-01-30T04:57:36;6.50;99.90
14236;DHT22;7202;50.718;7.072;2024-01-30T05:00:06;6.50;99.90
14236;DHT22;7202;50.718;7.072;2024-01-30T05:02:35;6.50;99.90
14236;DHT22;7202;50.718;7.072;2024-01-30T05:05:04;6.40;99.90
14236;DHT22;7202;50.718;7.072;2024-01-30T05:07:32;6.40;99.90
14236;DHT22;7202;50.718;7.072;2024-01-30T05:10:01;6.50;99.90
14236;DHT22;7202;50.718;7.072;2024-01-30T05:12:33;6.50;99.90
14236;DHT22;7202;50.718;7.072;2024-01-30T05:15:04;6.40;99.90
14236;DHT22;7202;50.718;7.072;2024-01-30T05:17:32;6.40;99.90
14236;DHT22;7202;50.718;7.072;2024-01-30T05:20:02;6.40;99.90
14236;DHT22;7202;50.718;7.072;2024-01-30T05:22:32;6.40;99.90
14236;DHT22;7202;50.718;7.072;2024-01-30T05:25:00;6.40;99.90
14236;DHT22;7202;50.718;7.072;2024-01-30T05:27:29;6.40;99.90
14236;DHT22;7202;50.718;7.072;2024-01-30T05:29:57;6.50;99.90
14236;DHT22;7202;50.718;7.072;2024-01-30T05:32:27;6.40;99.90
14236;DHT22;7202;50.718;7.072;2024-01-30T05:34:56;6.40;99.90
14236;DHT22;7202;50.718;7.072;2024-01-30T05:37:24;6.40;99.90
14236;DHT22;7202;50.718;7.072;2024-01-30T05:39:53;6.50;99.90
14236;DHT22;7202;50.718;7.072;2024-01-30T05:42:21;6.50;99.90
14236;DHT22;7202;50.718;7.072;2024-01-30T05:44:50;6.50;99.90
14236;DHT22;7202;50.718;7.072;2024-01-30T05:47:19;6.50;99.90
14236;DHT22;7202;50.718;7.072;2024-01-30T05:49:49;6.50;99.90
14236;DHT22;7202;50.718;7.072;2024-01-30T05:52:17;6.40;99.90
14236;DHT22;7202;50.718;7.072;2024-01-30T05:54:47;6.50;99.90
14236;DHT22;7202;50.718;7.072;2024-01-30T05:57:15;6.40;99.90
14236;DHT22;7202;50.718;7.072;2024-01-30T05:59:44;6.50;99.90
14236;DHT22;7202;50.718;7.072;2024-01-30T06:02:14;6.60;99.90
14236;DHT22;7202;50.718;7.072;2024-01-30T06:04:43;6.70;99.90
14236;DHT22;7202;50.718;7.072;2024-01-30T06:07:13;6.70;99.90
14236;DHT22;7202;50.718;7.072;2024-01-30T06:09:42;6.70;99.90
14236;DHT22;7202;50.718;7.072;2024-01-30T06:12:10;6.70;99.90
14236;DHT22;7202;50.718;7.072;2024-01-30T06:14:39;6.80;99.90
14236;DHT22;7202;50.718;7.072;2024-01-30T06:17:13;7.00;99.90
14236;DHT22;7202;50.718;7.072;2024-01-30T06:19:42;6.80;99.90
14236;DHT22;7202;50.718;7.072;2024-01-30T06:22:10;6.90;99.90
14236;DHT22;7202;50.718;7.072;2024-01-30T06:24:40;6.90;99.90
14236;DHT22;7202;50.718;7.072;2024-01-30T06:27:09;6.90;99.90
14236;DHT22;7202;50.718;7.072;2024-01-30T06:29:37;7.00;99.90
14236;DHT22;7202;50.718;7.072;2024-01-30T06:32:06;7.00;99.90
14236;DHT22;7202;50.718;7.072;2024-01-30T06:34:35;7.10;99.90
14236;DHT22;7202;50.718;7.072;2024-01-30T06:37:04;7.10;99.90
14236;DHT22;7202;50.718;7.072;2024-01-30T06:39:32;7.00;99.90
14236;DHT22;7202;50.718;7.072;2024-01-30T06:42:02;7.20;99.90
14236;DHT22;7202;50.718;7.072;2024-01-30T06:44:31;7.20;99.90
14236;DHT22;7202;50.718;7.072;2024-01-30T06:47:00;7.40;99.90
14236;DHT22;7202;50.718;7.072;2024-01-30T06:49:28;7.50;99.90
14236;DHT22;7202;50.718;7.072;2024-01-30T06:51:57;7.40;99.90
14236;DHT22;7202;50.718;7.072;2024-01-30T06:54:26;7.30;99.90
14236;DHT22;7202;50.718;7.072;2024-01-30T06:56:54;7.40;99.90
14236;DHT22;7202;50.718;7.072;2024-01-30T06:59:24;7.50;99.90
14236;DHT22;7202;50.718;7.072;2024-01-30T07:01:53;7.50;99.90
14236;DHT22;7202;50.718;7.072;2024-01-30T07:04:21;7.60;99.90
14236;DHT22;7202;50.718;7.072;2024-01-30T07:06:50;7.60;99.90
14236;DHT22;7202;50.718;7.072;2024-01-30T07:09:20;7.60;99.90
14236;DHT22;7202;50.718;7.072;2024-01-30T07:11:50;7.50;99.90
14236;DHT22;7202;50.718;7.072;2024-01-30T07:14:19;7.50;99.90
14236;DHT22;7202;50.718;7.072;2024-01-30T07:16:49;7.50;99.90
14236;DHT22;7202;50.718;7.072;2024-01-30T07:19:17;7.50;99.90
14236;DHT22;7202;50.718;7.072;2024-01-30T07:21:46;7.50;99.90
14236;DHT22;7202;50.718;7.072;2024-01-30T07:24:15;7.50;99.90
14236;DHT22;7202;50.718;7.072;2024-01-30T07:26:43;7.50;99.90
14236;DHT22;7202;50.718;7.072;2024-01-30T07:29:12;7.50;99.90
14236;DHT22;7202;50.718;7.072;2024-01-30T07:31:40;7.50;99.90
14236;DHT22;7202;50.718;7.072;2024-01-30T07:34:11;7.40;99.90
14236;DHT22;7202;50.718;7.072;2024-01-30T07:36:40;7.50;99.90
14236;DHT22;7202;50.718;7.072;2024-01-30T07:39:08;7.50;99.90
14236;DHT22;7202;50.718;7.072;2024-01-30T07:41:37;7.50;99.90
14236;DHT22;7202;50.718;7.072;2024-01-30T07:44:06;7.50;99.90
14236;DHT22;7202;50.718;7.072;2024-01-30T07:46:35;7.40;99.90
14236;DHT22;7202;50.718;7.072;2024-01-30T07:49:03;7.40;99.90
14236;DHT22;7202;50.718;7.072;2024-01-30T07:51:33;7.40;99.90
14236;DHT22;7202;50.718;7.072;2024-01-30T07:54:02;7.40;99.90
14236;DHT22;7202;50.718;7.072;2024-01-30T07:56:30;7.40;99.90
14236;DHT22;7202;50.718;7.072;2024-01-30T07:58:58;7.40;99.90
14236;DHT22;7202;50.718;7.072;2024-01-30T08:01:27;7.30;99.90
14236;DHT22;7202;50.718;7.072;2024-01-30T08:03:56;7.30;99.90
14236;DHT22;7202;50.718;7.072;2024-01-30T08:06:24;7.30;99.90
14236;DHT22;7202;50.718;7.072;2024-01-30T08:08:54;7.30;99.90
14236;DHT22;7202;50.718;7.072;2024-01-30T08:11:24;7.20;99.90
14236;DHT22;7202;50.718;7.072;2024-01-30T08:13:54;7.20;99.90
14236;DHT22;7202;50.718;7.072;2024-01-30T08:16:22;7.20;99.90
14236;DHT22;7202;50.718;7.072;2024-01-30T08:18:51;7.30;99.90
14236;DHT22;7202;50.718;7.072;2024-01-30T08:21:21;7.20;99.90
14236;DHT22;7202;50.718;7.072;2024-01-30T08:23:49;7.20;99.90
14236;DHT22;7202;50.718;7.072;2024-01-30T08:26:19;7.20;99.90
14236;DHT22;7202;50.718;7.072;2024-01-30T08:28:47;7.30;99.90
14236;DHT22;7202;50.718;7.072;2024-01-30T08:31:17;7.30;99.90
14236;DHT22;7202;50.718;7.072;2024-01-30T08:33:46;7.40;99.90
14236;DHT22;7202;50.718;7.072;2024-01-30T08:36:17;7.40;99.90
14236;DHT22;7202;50.718;7.072;2024-01-30T08:38:45;7.50;99.90
14236;DHT22;7202;50.718;7.072;2024-01-30T08:41:14;7.50;99.90
14236;DHT22;7202;50.718;7.072;2024-01-30T08:43:44;7.50;99.90
14236;DHT22;7202;50.718;7.072;2024-01-30T08:46:12;7.50;99.90
14236;DHT22;7202;50.718;7.072;2024-01-30T08:48:42;7.50;99.90
14236;DHT22;7202;50.718;7.072;2024-01-30T08:51:16;7.50;99.90
14236;DHT22;7202;50.718;7.072;2024-01-30T08:53:45;7.50;99.90
14236;DHT22;7202;50.718;7.072;2024-01-30T08:56:14;7.60;99.90
14236;DHT22;7202;50.718;7.072;2024-01-30T08:58:45;7.70;99.90
14236;DHT22;7202;50.718;7.072;2024-01-30T09:01:14;7.70;99.90
14236;DHT22;7202;50.718;7.072;2024-01-30T09:03:43;7.70;99.90
14236;DHT22;7202;50.718;7.072;2024-01-30T09:06:13;7.80;99.90
14236;DHT22;7202;50.718;7.072;2024-01-30T09:08:42;7.80;99.90
14236;DHT22;7202;50.718;7.072;2024-01-30T09:11:12;7.90;99.90
14236;DHT22;7202;50.718;7.072;2024-01-30T09:13:41;7.90;99.90
14236;DHT22;7202;50.718;7.072;2024-01-30T09:16:12;8.10;99.90
14236;DHT22;7202;50.718;7.072;2024-01-30T09:18:41;8.20;99.90
14236;DHT22;7202;50.718;7.072;2024-01-30T09:21:10;8.30;99.90
14236;DHT22;7202;50.718;7.072;2024-01-30T09:23:38;8.40;99.90
14236;DHT22;7202;50.718;7.072;2024-01-30T09:26:07;8.50;99.90
14236;DHT22;7202;50.718;7.072;2024-01-30T09:28:35;8.60;99.90
14236;DHT22;7202;50.718;7.072;2024-01-30T09:31:04;8.70;99.90
14236;DHT22;7202;50.718;7.072;2024-01-30T09:33:39;8.90;99.90
14236;DHT22;7202;50.718;7.072;2024-01-30T09:36:08;9.00;99.90
14236;DHT22;7202;50.718;7.072;2024-01-30T09:38:37;9.10;99.90
14236;DHT22;7202;50.718;7.072;2024-01-30T09:41:09;9.30;99.90
14236;DHT22;7202;50.718;7.072;2024-01-30T09:43:38;9.50;99.90
14236;DHT22;7202;50.718;7.072;2024-01-30T09:46:11;9.70;99.90
14236;DHT22;7202;50.718;7.072;2024-01-30T09:48:41;9.80;99.90
14236;DHT22;7202;50.718;7.072;2024-01-30T09:51:11;10.00;99.90
14236;DHT22;7202;50.718;7.072;2024-01-30T09:53:41;10.20;99.90
14236;DHT22;7202;50.718;7.072;2024-01-30T09:56:10;10.40;99.90
14236;DHT22;7202;50.718;7.072;2024-01-30T09:58:40;10.50;99.90
14236;DHT22;7202;50.718;7.072;2024-01-30T10:01:09;10.60;99.90
14236;DHT22;7202;50.718;7.072;2024-01-30T10:03:38;10.80;99.90
14236;DHT22;7202;50.718;7.072;2024-01-30T10:06:09;10.90;99.90
14236;DHT22;7202;50.718;7.072;2024-01-30T10:08:38;10.90;99.90
14236;DHT22;7202;50.718;7.072;2024-01-30T10:11:07;11.00;99.90
14236;DHT22;7202;50.718;7.072;2024-01-30T10:13:35;11.10;99.90
14236;DHT22;7202;50.718;7.072;2024-01-30T10:16:05;11.10;99.90
14236;DHT22;7202;50.718;7.072;2024-01-30T10:18:34;11.20;99.90
14236;DHT22;7202;50.718;7.072;2024-01-30T10:21:02;11.20;99.90
14236;DHT22;7202;50.718;7.072;2024-01-30T10:23:33;11.30;99.90
14236;DHT22;7202;50.718;7.072;2024-01-30T10:26:03;11.30;99.90
14236;DHT22;7202;50.718;7.072;2024-01-30T10:28:32;11.30;99.90
14236;DHT22;7202;50.718;7.072;2024-01-30T10:31:00;11.30;99.90
14236;DHT22;7202;50.718;7.072;2024-01-30T10:33:33;11.30;99.90
14236;DHT22;7202;50.718;7.072;2024-01-30T10:36:03;11.30;99.90
14236;DHT22;7202;50.718;7.072;2024-01-30T10:38:33;11.30;99.90
14236;DHT22;7202;50.718;7.072;2024-01-30T10:41:02;11.30;99.90
14236;DHT22;7202;50.718;7.072;2024-01-30T10:43:32;11.40;99.90
14236;DHT22;7202;50.718;7.072;2024-01-30T10:46:10;11.40;99.90
14236;DHT22;7202;50.718;7.072;2024-01-30T10:48:43;11.40;99.90
14236;DHT22;7202;50.718;7.072;2024-01-30T10:51:15;11.40;99.90
14236;DHT22;7202;50.718;7.072;2024-01-30T10:53:46;11.40;99.90
14236;DHT22;7202;50.718;7.072;2024-01-30T10:56:16;11.40;99.90
14236;DHT22;7202;50.718;7.072;2024-01-30T10:58:46;11.40;99.90
14236;DHT22;7202;50.718;7.072;2024-01-30T11:01:15;11.50;99.90
14236;DHT22;7202;50.718;7.072;2024-01-30T11:03:44;11.40;99.90
14236;DHT22;7202;50.718;7.072;2024-01-30T11:06:14;11.40;99.90
14236;DHT22;7202;50.718;7.072;2024-01-30T11:08:47;11.30;99.90
14236;DHT22;7202;50.718;7.072;2024-01-30T11:11:28;11.20;99.90
14236;DHT22;7202;50.718;7.072;2024-01-30T11:14:00;11.20;99.90
14236;DHT22;7202;50.718;7.072;2024-01-30T11:16:32;11.10;99.90
14236;DHT22;7202;50.718;7.072;2024-01-30T11:19:01;11.00;99.90
14236;DHT22;7202;50.718;7.072;2024-01-30T11:21:29;11.00;99.90
14236;DHT22;7202;50.718;7.072;2024-01-30T11:23:59;11.10;99.90
14236;DHT22;7202;50.718;7.072;2024-01-30T11:26:31;11.10;99.90
14236;DHT22;7202;50.718;7.072;2024-01-30T11:29:03;11.20;99.90
14236;DHT22;7202;50.718;7.072;2024-01-30T11:31:31;11.30;99.90
14236;DHT22;7202;50.718;7.072;2024-01-30T11:34:00;11.30;99.90
14236;DHT22;7202;50.718;7.072;2024-01-30T11:36:31;11.40;99.90
14236;DHT22;7202;50.718;7.072;2024-01-30T11:39:06;11.50;99.90
14236;DHT22;7202;50.718;7.072;2024-01-30T11:41:37;11.40;99.90
14236;DHT22;7202;50.718;7.072;2024-01-30T11:44:07;11.50;99.90
14236;DHT22;7202;50.718;7.072;2024-01-30T11:46:36;11.60;99.90
14236;DHT22;7202;50.718;7.072;2024-01-30T11:49:05;11.60;99.90
14236;DHT22;7202;50.718;7.072;2024-01-30T11:51:34;11.70;99.90
14236;DHT22;7202;50.718;7.072;2024-01-30T11:54:03;11.70;99.90
14236;DHT22;7202;50.718;7.072;2024-01-30T11:56:33;11.70;99.90
14236;DHT22;7202;50.718;7.072;2024-01-30T11:59:01;11.80;99.90
14236;DHT22;7202;50.718;7.072;2024-01-30T12:01:31;11.80;99.90
14236;DHT22;7202;50.718;7.072;2024-01-30T12:04:00;11.90;99.90
14236;DHT22;7202;50.718;7.072;2024-01-30T12:06:29;11.90;99.90
14236;DHT22;7202;50.718;7.072;2024-01-30T12:08:58;11.90;99.90
14236;DHT22;7202;50.718;7.072;2024-01-30T12:11:27;12.00;99.90
14236;DHT22;7202;50.718;7.072;2024-01-30T12:13:58;12.00;99.90
14236;DHT22;7202;50.718;7.072;2024-01-30T12:16:27;12.10;99.90
14236;DHT22;7202;50.718;7.072;2024-01-30T12:18:59;12.10;99.90
14236;DHT22;7202;50.718;7.072;2024-01-30T12:21:29;12.20;99.90
14236;DHT22;7202;50.718;7.072;2024-01-30T12:23:58;12.30;99.90
14236;DHT22;7202;50.718;7.072;2024-01-30T12:26:27;12.30;99.90
14236;DHT22;7202;50.718;7.072;2024-01-30T12:28:58;12.30;99.90
14236;DHT22;7202;50.718;7.072;2024-01-30T12:31:26;12.30;99.90
14236;DHT22;7202;50.718;7.072;2024-01-30T12:33:55;12.30;99.90
14236;DHT22;7202;50.718;7.072;2024-01-30T12:36:26;12.40;99.90
14236;DHT22;7202;50.718;7.072;2024-01-30T12:38:55;12.40;99.90
14236;DHT22;7202;50.718;7.072;2024-01-30T12:41:26;12.40;99.90
14236;DHT22;7202;50.718;7.072;2024-01-30T12:43:58;12.30;99.90
14236;DHT22;7202;50.718;7.072;2024-01-30T12:46:28;12.30;99.90
14236;DHT22;7202;50.718;7.072;2024-01-30T12:48:57;12.30;99.90
14236;DHT22;7202;50.718;7.072;2024-01-30T12:51:25;12.30;99.90
14236;DHT22;7202;50.718;7.072;2024-01-30T12:53:54;12.30;99.90
14236;DHT22;7202;50.718;7.072;2024-01-30T12:56:23;12.20;99.90
14236;DHT22;7202;50.718;7.072;2024-01-30T12:58:51;12.20;99.90
14236;DHT22;7202;50.718;7.072;2024-01-30T13:01:23;12.20;99.90
14236;DHT22;7202;50.718;7.072;2024-01-30T13:03:52;12.20;99.90
14236;DHT22;7202;50.718;7.072;2024-01-30T13:06:21;12.20;99.90
14236;DHT22;7202;50.718;7.072;2024-01-30T13:08:49;12.20;99.90
14236;DHT22;7202;50.718;7.072;2024-01-30T13:11:18;12.20;99.90
14236;DHT22;7202;50.718;7.072;2024-01-30T13:13:48;12.20;99.90
14236;DHT22;7202;50.718;7.072;2024-01-30T13:16:16;12.20;99.90
14236;DHT22;7202;50.718;7.072;2024-01-30T13:18:47;12.20;99.90
14236;DHT22;7202;50.718;7.072;2024-01-30T13:21:15;12.20;99.90
14236;DHT22;7202;50.718;7.072;2024-01-30T13:23:44;12.20;99.90
14236;DHT22;7202;50.718;7.072;2024-01-30T13:26:13;12.20;99.90
14236;DHT22;7202;50.718;7.072;2024-01-30T13:28:41;12.20;99.90
14236;DHT22;7202;50.718;7.072;2024-01-30T13:31:11;12.20;99.90
14236;DHT22;7202;50.718;7.072;2024-01-30T13:33:40;12.20;99.90
14236;DHT22;7202;50.718;7.072;2024-01-30T13:36:11;12.20;99.90
14236;DHT22;7202;50.718;7.072;2024-01-30T13:38:40;12.20;99.90
14236;DHT22;7202;50.718;7.072;2024-01-30T13:41:08;12.20;99.90
14236;DHT22;7202;50.718;7.072;2024-01-30T13:43:37;12.20;99.90
14236;DHT22;7202;50.718;7.072;2024-01-30T13:46:05;12.10;99.90
14236;DHT22;7202;50.718;7.072;2024-01-30T13:48:34;12.10;99.90
14236;DHT22;7202;50.718;7.072;2024-01-30T13:51:03;12.10;99.90
14236;DHT22;7202;50.718;7.072;2024-01-30T13:53:33;12.00;99.90
14236;DHT22;7202;50.718;7.072;2024-01-30T13:56:02;12.00;99.90
14236;DHT22;7202;50.718;7.072;2024-01-30T13:58:31;12.00;99.90
14236;DHT22;7202;50.718;7.072;2024-01-30T14:01:01;12.00;99.90
14236;DHT22;7202;50.718;7.072;2024-01-30T14:03:29;12.00;99.90
14236;DHT22;7202;50.718;7.072;2024-01-30T14:05:58;12.00;99.90
14236;DHT22;7202;50.718;7.072;2024-01-30T14:08:27;12.00;99.90
14236;DHT22;7202;50.718;7.072;2024-01-30T14:10:57;12.00;99.90
14236;DHT22;7202;50.718;7.072;2024-01-30T14:13:27;11.90;99.90
14236;DHT22;7202;50.718;7.072;2024-01-30T14:15:55;12.00;99.90
14236;DHT22;7202;50.718;7.072;2024-01-30T14:18:25;12.00;99.90
14236;DHT22;7202;50.718;7.072;2024-01-30T14:20:54;11.90;99.90
14236;DHT22;7202;50.718;7.072;2024-01-30T14:23:22;11.90;99.90
14236;DHT22;7202;50.718;7.072;2024-01-30T14:25:51;11.80;99.90
14236;DHT22;7202;50.718;7.072;2024-01-30T14:28:21;11.90;99.90
14236;DHT22;7202;50.718;7.072;2024-01-30T14:30:49;11.80;99.90
14236;DHT22;7202;50.718;7.072;2024-01-30T14:33:18;11.90;99.90
14236;DHT22;7202;50.718;7.072;2024-01-30T14:35:47;11.80;99.90
14236;DHT22;7202;50.718;7.072;2024-01-30T14:38:16;11.80;99.90
14236;DHT22;7202;50.718;7.072;2024-01-30T14:40:44;11.80;99.90
14236;DHT22;7202;50.718;7.072;2024-01-30T14:43:13;11.80;99.90
14236;DHT22;7202;50.718;7.072;2024-01-30T14:45:43;11.80;99.90
14236;DHT22;7202;50.718;7.072;2024-01-30T14:48:13;11.80;99.90
14236;DHT22;7202;50.718;7.072;2024-01-30T14:50:42;11.80;99.90
14236;DHT22;7202;50.718;7.072;2024-01-30T14:53:10;11.70;99.90
14236;DHT22;7202;50.718;7.072;2024-01-30T14:55:39;11.70;99.90
14236;DHT22;7202;50.718;7.072;2024-01-30T14:58:07;11.70;99.90
14236;DHT22;7202;50.718;7.072;2024-01-30T15:00:38;11.60;99.90
14236;DHT22;7202;50.718;7.072;2024-01-30T15:03:08;11.70;99.90
14236;DHT22;7202;50.718;7.072;2024-01-30T15:05:37;11.70;99.90
14236;DHT22;7202;50.718;7.072;2024-01-30T15:08:06;11.60;99.90
14236;DHT22;7202;50.718;7.072;2024-01-30T15:10:35;11.50;99.90
14236;DHT22;7202;50.718;7.072;2024-01-30T15:13:04;11.50;99.90
14236;DHT22;7202;50.718;7.072;2024-01-30T15:15:32;11.40;99.90
14236;DHT22;7202;50.718;7.072;2024-01-30T15:18:01;11.40;99.90
14236;DHT22;7202;50.718;7.072;2024-01-30T15:20:31;11.40;99.90
14236;DHT22;7202;50.718;7.072;2024-01-30T15:23:00;11.40;99.90
14236;DHT22;7202;50.718;7.072;2024-01-30T15:25:28;11.30;99.90
14236;DHT22;7202;50.718;7.072;2024-01-30T15:27:57;11.20;99.90
14236;DHT22;7202;50.718;7.072;2024-01-30T15:30:25;11.20;99.90
14236;DHT22;7202;50.718;7.072;2024-01-30T15:32:54;11.20;99.90
14236;DHT22;7202;50.718;7.072;2024-01-30T15:35:23;11.20;99.90
14236;DHT22;7202;50.718;7.072;2024-01-30T15:37:53;11.20;99.90
14236;DHT22;7202;50.718;7.072;2024-01-30T15:40:21;11.20;99.90
14236;DHT22;7202;50.718;7.072;2024-01-30T15:42:50;11.30;99.90
14236;DHT22;7202;50.718;7.072;2024-01-30T15:45:19;11.10;99.90
14236;DHT22;7202;50.718;7.072;2024-01-30T15:47:47;11.10;99.90
14236;DHT22;7202;50.718;7.072;2024-01-30T15:50:16;11.10;99.90
14236;DHT22;7202;50.718;7.072;2024-01-30T15:52:45;11.00;99.90
14236;DHT22;7202;50.718;7.072;2024-01-30T15:55:14;11.00;99.90
14236;DHT22;7202;50.718;7.072;2024-01-30T15:57:47;11.00;99.90
14236;DHT22;7202;50.718;7.072;2024-01-30T16:00:16;10.90;99.90
14236;DHT22;7202;50.718;7.072;2024-01-30T16:02:44;10.90;99.90
14236;DHT22;7202;50.718;7.072;2024-01-30T16:05:13;10.90;99.90
14236;DHT22;7202;50.718;7.072;2024-01-30T16:07:42;10.90;99.90